sensor_id;sensor_type;location;lat;lon;timestamp;pressure;altitude;pressure_sealevel;temperature;humidity
66176;BME280;52977;44.816;20.538;2023-04-27T00:02:17;99786.72;;;10.07;50.73
66176;BME280;52977;44.816;20.538;2023-04-27T00:04:43;99792.94;;;9.99;51.30
66176;BME280;52977;44.816;20.538;2023-04-27T00:07:09;99793.00;;;10.07;51.55
66176;BME280;52977;44.816;20.538;2023-04-27T00:09:35;99772.22;;;9.89;51.33
66176;BME280;52977;44.816;20.538;2023-04-27T00:12:01;99766.31;;;9.96;50.82
66176;BME280;52977;44.816;20.538;2023-04-27T00:14:27;99782.88;;;10.08;51.12
66176;BME280;52977;44.816;20.538;2023-04-27T00:16:54;99786.25;;;10.05;50.92
66176;BME280;52977;44.816;20.538;2023-04-27T00:19:20;99711.91;;;9.33;51.62
66176;BME280;52977;44.816;20.538;2023-04-27T00:21:47;99777.47;;;9.77;51.44
66176;BME280;52977;44.816;20.538;2023-04-27T00:24:13;99736.59;;;9.36;52.61
66176;BME280;52977;44.816;20.538;2023-04-27T00:26:39;99789.63;;;9.62;52.88
66176;BME280;52977;44.816;20.538;2023-04-27T00:29:06;99752.22;;;9.53;52.34
66176;BME280;52977;44.816;20.538;2023-04-27T00:31:32;99787.13;;;9.83;52.60
66176;BME280;52977;44.816;20.538;2023-04-27T00:33:58;99695.00;;;9.22;52.46
66176;BME280;52977;44.816;20.538;2023-04-27T00:36:24;99773.78;;;9.72;52.59
66176;BME280;52977;44.816;20.538;2023-04-27T00:38:52;99774.09;;;9.71;52.87
66176;BME280;52977;44.816;20.538;2023-04-27T00:41:18;99717.06;;;9.43;51.88
66176;BME280;52977;44.816;20.538;2023-04-27T00:43:45;99784.41;;;9.83;51.74
66176;BME280;52977;44.816;20.538;2023-04-27T00:46:12;99770.38;;;9.67;52.39
66176;BME280;52977;44.816;20.538;2023-04-27T00:48:40;99781.81;;;9.78;52.04
66176;BME280;52977;44.816;20.538;2023-04-27T00:51:07;99775.16;;;9.61;52.27
66176;BME280;52977;44.816;20.538;2023-04-27T00:53:34;99788.38;;;9.77;52.42
66176;BME280;52977;44.816;20.538;2023-04-27T00:56:01;99786.28;;;9.73;52.87
66176;BME280;52977;44.816;20.538;2023-04-27T00:58:28;99798.69;;;9.80;52.08
66176;BME280;52977;44.816;20.538;2023-04-27T01:00:54;99799.94;;;9.82;52.00
66176;BME280;52977;44.816;20.538;2023-04-27T01:03:21;99750.59;;;9.52;51.89
66176;BME280;52977;44.816;20.538;2023-04-27T01:05:47;99799.47;;;9.80;51.31
66176;BME280;52977;44.816;20.538;2023-04-27T01:08:13;99794.50;;;9.82;51.93
66176;BME280;52977;44.816;20.538;2023-04-27T01:10:39;99718.28;;;9.28;52.09
66176;BME280;52977;44.816;20.538;2023-04-27T01:13:09;99803.19;;;9.53;52.01
66176;BME280;52977;44.816;20.538;2023-04-27T01:15:36;99741.75;;;9.15;52.27
66176;BME280;52977;44.816;20.538;2023-04-27T01:18:02;99800.97;;;9.55;52.63
66176;BME280;52977;44.816;20.538;2023-04-27T01:20:29;99767.94;;;9.02;52.54
66176;BME280;52977;44.816;20.538;2023-04-27T01:22:56;99725.81;;;8.77;52.90
66176;BME280;52977;44.816;20.538;2023-04-27T01:25:22;99829.47;;;9.26;53.52
66176;BME280;52977;44.816;20.538;2023-04-27T01:27:48;99800.59;;;9.25;52.96
66176;BME280;52977;44.816;20.538;2023-04-27T01:30:15;99809.22;;;9.41;52.91
66176;BME280;52977;44.816;20.538;2023-04-27T01:32:41;99811.25;;;9.35;53.03
66176;BME280;52977;44.816;20.538;2023-04-27T01:35:08;99755.53;;;9.10;53.15
66176;BME280;52977;44.816;20.538;2023-04-27T01:37:34;99811.50;;;9.48;52.92
66176;BME280;52977;44.816;20.538;2023-04-27T01:40:00;99807.84;;;9.52;52.64
66176;BME280;52977;44.816;20.538;2023-04-27T01:42:27;99780.44;;;9.26;53.10
66176;BME280;52977;44.816;20.538;2023-04-27T01:44:53;99818.41;;;9.54;53.32
66176;BME280;52977;44.816;20.538;2023-04-27T01:47:19;99811.81;;;9.46;53.43
66176;BME280;52977;44.816;20.538;2023-04-27T01:49:46;99692.38;;;8.77;53.33
66176;BME280;52977;44.816;20.538;2023-04-27T01:52:12;99808.50;;;9.58;52.43
66176;BME280;52977;44.816;20.538;2023-04-27T01:54:38;99821.56;;;9.47;53.11
66176;BME280;52977;44.816;20.538;2023-04-27T01:57:05;99816.34;;;9.28;52.98
66176;BME280;52977;44.816;20.538;2023-04-27T01:59:32;99809.03;;;9.15;52.99
66176;BME280;52977;44.816;20.538;2023-04-27T02:01:58;99777.06;;;8.75;54.16
66176;BME280;52977;44.816;20.538;2023-04-27T02:04:24;99810.34;;;8.95;53.13
66176;BME280;52977;44.816;20.538;2023-04-27T02:06:50;99792.25;;;8.76;53.50
66176;BME280;52977;44.816;20.538;2023-04-27T02:09:17;99816.59;;;8.95;54.43
66176;BME280;52977;44.816;20.538;2023-04-27T02:11:43;99836.16;;;8.97;53.60
66176;BME280;52977;44.816;20.538;2023-04-27T02:14:09;99831.94;;;9.14;52.83
66176;BME280;52977;44.816;20.538;2023-04-27T02:16:35;99834.75;;;8.86;53.91
66176;BME280;52977;44.816;20.538;2023-04-27T02:19:01;99795.53;;;8.64;54.20
66176;BME280;52977;44.816;20.538;2023-04-27T02:21:28;99832.47;;;8.79;54.88
66176;BME280;52977;44.816;20.538;2023-04-27T02:23:54;99829.03;;;8.87;53.96
66176;BME280;52977;44.816;20.538;2023-04-27T02:26:22;99832.16;;;8.81;53.93
66176;BME280;52977;44.816;20.538;2023-04-27T02:28:55;99835.09;;;8.70;53.65
66176;BME280;52977;44.816;20.538;2023-04-27T02:31:21;99834.72;;;8.63;54.14
66176;BME280;52977;44.816;20.538;2023-04-27T02:33:48;99820.84;;;8.51;54.30
66176;BME280;52977;44.816;20.538;2023-04-27T02:36:15;99726.59;;;8.04;54.78
66176;BME280;52977;44.816;20.538;2023-04-27T02:38:41;99783.88;;;8.36;54.31
66176;BME280;52977;44.816;20.538;2023-04-27T02:41:08;99771.91;;;8.09;55.32
66176;BME280;52977;44.816;20.538;2023-04-27T02:43:35;99829.19;;;8.54;55.14
66176;BME280;52977;44.816;20.538;2023-04-27T02:46:04;99823.38;;;8.33;54.93
66176;BME280;52977;44.816;20.538;2023-04-27T02:48:30;99839.09;;;8.50;55.39
66176;BME280;52977;44.816;20.538;2023-04-27T02:50:56;99838.84;;;8.61;55.04
66176;BME280;52977;44.816;20.538;2023-04-27T02:53:22;99839.38;;;8.35;54.72
66176;BME280;52977;44.816;20.538;2023-04-27T02:55:49;99842.59;;;8.51;55.12
66176;BME280;52977;44.816;20.538;2023-04-27T02:58:16;99851.69;;;8.46;55.73
66176;BME280;52977;44.816;20.538;2023-04-27T03:00:42;99814.38;;;8.19;54.93
66176;BME280;52977;44.816;20.538;2023-04-27T03:03:10;99727.03;;;7.56;55.22
66176;BME280;52977;44.816;20.538;2023-04-27T03:05:36;99859.72;;;8.37;55.90
66176;BME280;52977;44.816;20.538;2023-04-27T03:08:03;99815.81;;;8.16;55.83
66176;BME280;52977;44.816;20.538;2023-04-27T03:10:29;99845.44;;;8.46;55.90
66176;BME280;52977;44.816;20.538;2023-04-27T03:12:55;99805.53;;;8.27;54.59
66176;BME280;52977;44.816;20.538;2023-04-27T03:15:21;99859.53;;;8.48;55.45
66176;BME280;52977;44.816;20.538;2023-04-27T03:17:47;99831.84;;;8.46;55.60
66176;BME280;52977;44.816;20.538;2023-04-27T03:20:13;99857.00;;;8.65;55.93
66176;BME280;52977;44.816;20.538;2023-04-27T03:22:40;99855.50;;;8.59;55.65
66176;BME280;52977;44.816;20.538;2023-04-27T03:25:06;99820.66;;;8.19;56.30
66176;BME280;52977;44.816;20.538;2023-04-27T03:27:32;99789.13;;;8.18;55.53
66176;BME280;52977;44.816;20.538;2023-04-27T03:29:59;99865.16;;;8.79;55.37
66176;BME280;52977;44.816;20.538;2023-04-27T03:32:25;99865.72;;;8.76;55.88
66176;BME280;52977;44.816;20.538;2023-04-27T03:34:51;99855.63;;;8.54;55.78
66176;BME280;52977;44.816;20.538;2023-04-27T03:37:18;99866.16;;;8.69;55.75
66176;BME280;52977;44.816;20.538;2023-04-27T03:39:44;99853.97;;;8.39;55.25
66176;BME280;52977;44.816;20.538;2023-04-27T03:42:11;99871.13;;;8.53;55.97
66176;BME280;52977;44.816;20.538;2023-04-27T03:44:37;99788.53;;;7.94;55.67
66176;BME280;52977;44.816;20.538;2023-04-27T03:47:03;99840.78;;;8.32;55.51
66176;BME280;52977;44.816;20.538;2023-04-27T03:49:35;99871.13;;;8.53;55.40
66176;BME280;52977;44.816;20.538;2023-04-27T03:52:01;99868.91;;;8.69;54.82
66176;BME280;52977;44.816;20.538;2023-04-27T03:54:30;99878.66;;;8.70;54.30
66176;BME280;52977;44.816;20.538;2023-04-27T03:56:56;99870.47;;;8.43;55.21
66176;BME280;52977;44.816;20.538;2023-04-27T03:59:22;99891.88;;;8.63;55.23
66176;BME280;52977;44.816;20.538;2023-04-27T04:01:49;99889.25;;;8.58;55.09
66176;BME280;52977;44.816;20.538;2023-04-27T04:04:15;99834.66;;;7.99;55.88
66176;BME280;52977;44.816;20.538;2023-04-27T04:06:41;99838.88;;;8.05;56.96
66176;BME280;52977;44.816;20.538;2023-04-27T04:09:07;99809.13;;;7.53;57.50
66176;BME280;52977;44.816;20.538;2023-04-27T04:11:33;99905.06;;;8.28;57.13
66176;BME280;52977;44.816;20.538;2023-04-27T04:14:03;99909.41;;;8.29;57.06
66176;BME280;52977;44.816;20.538;2023-04-27T04:16:29;99906.06;;;8.32;56.34
66176;BME280;52977;44.816;20.538;2023-04-27T04:18:56;99911.56;;;8.13;57.34
66176;BME280;52977;44.816;20.538;2023-04-27T04:21:22;99881.66;;;8.13;56.03
66176;BME280;52977;44.816;20.538;2023-04-27T04:23:48;99911.91;;;8.26;56.48
66176;BME280;52977;44.816;20.538;2023-04-27T04:26:15;99900.72;;;8.27;56.82
66176;BME280;52977;44.816;20.538;2023-04-27T04:28:41;99914.31;;;8.27;55.87
66176;BME280;52977;44.816;20.538;2023-04-27T04:31:08;99919.56;;;8.37;55.48
66176;BME280;52977;44.816;20.538;2023-04-27T04:33:35;99902.03;;;8.30;55.64
66176;BME280;52977;44.816;20.538;2023-04-27T04:36:03;99917.72;;;8.33;55.87
66176;BME280;52977;44.816;20.538;2023-04-27T04:38:29;99919.88;;;8.22;56.90
66176;BME280;52977;44.816;20.538;2023-04-27T04:40:55;99923.78;;;8.30;56.67
66176;BME280;52977;44.816;20.538;2023-04-27T04:43:21;99923.19;;;8.33;57.12
66176;BME280;52977;44.816;20.538;2023-04-27T04:45:47;99927.03;;;8.32;56.76
66176;BME280;52977;44.816;20.538;2023-04-27T04:48:14;99929.09;;;8.54;55.98
66176;BME280;52977;44.816;20.538;2023-04-27T04:50:41;99868.91;;;8.14;56.01
66176;BME280;52977;44.816;20.538;2023-04-27T04:53:07;99874.13;;;8.24;55.75
66176;BME280;52977;44.816;20.538;2023-04-27T04:55:33;99896.72;;;8.52;55.02
66176;BME280;52977;44.816;20.538;2023-04-27T04:58:00;99903.38;;;8.60;54.80
66176;BME280;52977;44.816;20.538;2023-04-27T05:00:27;99896.22;;;8.50;54.83
66176;BME280;52977;44.816;20.538;2023-04-27T05:02:53;99897.28;;;8.35;55.57
66176;BME280;52977;44.816;20.538;2023-04-27T05:05:19;99807.81;;;7.50;57.10
66176;BME280;52977;44.816;20.538;2023-04-27T05:07:45;99946.78;;;8.37;57.49
66176;BME280;52977;44.816;20.538;2023-04-27T05:10:12;99877.13;;;7.95;57.43
66176;BME280;52977;44.816;20.538;2023-04-27T05:12:38;99837.16;;;7.67;57.94
66176;BME280;52977;44.816;20.538;2023-04-27T05:15:04;99956.69;;;8.61;57.32
66176;BME280;52977;44.816;20.538;2023-04-27T05:17:31;99928.44;;;8.29;57.22
66176;BME280;52977;44.816;20.538;2023-04-27T05:19:57;99929.13;;;8.21;57.55
66176;BME280;52977;44.816;20.538;2023-04-27T05:22:23;99948.56;;;8.28;58.00
66176;BME280;52977;44.816;20.538;2023-04-27T05:24:49;99963.81;;;8.43;58.25
66176;BME280;52977;44.816;20.538;2023-04-27T05:27:15;99971.72;;;8.26;58.71
66176;BME280;52977;44.816;20.538;2023-04-27T05:29:41;99898.06;;;7.94;58.52
66176;BME280;52977;44.816;20.538;2023-04-27T05:32:08;99975.44;;;8.63;58.77
66176;BME280;52977;44.816;20.538;2023-04-27T05:34:34;99925.19;;;8.27;58.10
66176;BME280;52977;44.816;20.538;2023-04-27T05:37:01;99919.25;;;8.25;58.26
66176;BME280;52977;44.816;20.538;2023-04-27T05:39:28;99982.28;;;8.74;58.25
66176;BME280;52977;44.816;20.538;2023-04-27T05:41:54;99985.00;;;8.88;57.21
66176;BME280;52977;44.816;20.538;2023-04-27T05:44:20;99986.50;;;8.66;57.92
66176;BME280;52977;44.816;20.538;2023-04-27T05:46:46;99981.47;;;8.60;58.73
66176;BME280;52977;44.816;20.538;2023-04-27T05:49:12;99996.38;;;8.76;57.88
66176;BME280;52977;44.816;20.538;2023-04-27T05:51:38;99932.78;;;8.30;58.29
66176;BME280;52977;44.816;20.538;2023-04-27T05:54:04;99972.50;;;8.59;58.57
66176;BME280;52977;44.816;20.538;2023-04-27T05:56:31;99977.06;;;8.78;58.25
66176;BME280;52977;44.816;20.538;2023-04-27T05:58:57;99993.06;;;8.93;57.85
66176;BME280;52977;44.816;20.538;2023-04-27T06:01:23;99957.09;;;8.68;57.43
66176;BME280;52977;44.816;20.538;2023-04-27T06:03:49;100010.81;;;8.77;58.40
66176;BME280;52977;44.816;20.538;2023-04-27T06:06:15;100005.97;;;8.74;58.86
66176;BME280;52977;44.816;20.538;2023-04-27T06:08:41;99942.84;;;8.44;58.96
66176;BME280;52977;44.816;20.538;2023-04-27T06:11:07;99980.50;;;8.36;59.61
66176;BME280;52977;44.816;20.538;2023-04-27T06:13:33;100006.47;;;8.76;59.24
66176;BME280;52977;44.816;20.538;2023-04-27T06:16:00;100015.75;;;8.75;59.51
66176;BME280;52977;44.816;20.538;2023-04-27T06:18:26;100030.25;;;8.56;60.38
66176;BME280;52977;44.816;20.538;2023-04-27T06:20:57;100025.75;;;8.32;61.47
66176;BME280;52977;44.816;20.538;2023-04-27T06:23:24;99997.97;;;8.02;61.93
66176;BME280;52977;44.816;20.538;2023-04-27T06:25:50;99925.50;;;7.46;61.63
66176;BME280;52977;44.816;20.538;2023-04-27T06:28:16;100038.09;;;8.58;61.41
66176;BME280;52977;44.816;20.538;2023-04-27T06:30:42;100042.16;;;8.74;61.44
66176;BME280;52977;44.816;20.538;2023-04-27T06:33:08;100041.16;;;8.70;61.93
66176;BME280;52977;44.816;20.538;2023-04-27T06:35:34;100019.69;;;8.68;61.56
66176;BME280;52977;44.816;20.538;2023-04-27T06:38:00;100022.88;;;8.70;62.35
66176;BME280;52977;44.816;20.538;2023-04-27T06:40:26;100020.75;;;8.53;62.45
66176;BME280;52977;44.816;20.538;2023-04-27T06:42:52;100030.94;;;8.48;63.68
66176;BME280;52977;44.816;20.538;2023-04-27T06:45:19;99959.06;;;7.88;65.02
66176;BME280;52977;44.816;20.538;2023-04-27T06:47:45;100069.97;;;8.57;64.90
66176;BME280;52977;44.816;20.538;2023-04-27T06:50:12;99993.63;;;8.48;64.27
66176;BME280;52977;44.816;20.538;2023-04-27T06:52:38;99989.91;;;8.58;64.56
66176;BME280;52977;44.816;20.538;2023-04-27T06:55:05;100050.34;;;8.88;65.29
66176;BME280;52977;44.816;20.538;2023-04-27T06:57:31;100039.06;;;8.95;65.24
66176;BME280;52977;44.816;20.538;2023-04-27T06:59:57;99967.81;;;8.18;65.97
66176;BME280;52977;44.816;20.538;2023-04-27T07:02:23;100017.44;;;8.70;66.19
66176;BME280;52977;44.816;20.538;2023-04-27T07:04:49;100047.69;;;8.83;66.70
66176;BME280;52977;44.816;20.538;2023-04-27T07:07:16;100036.91;;;8.92;65.94
66176;BME280;52977;44.816;20.538;2023-04-27T07:09:43;100045.28;;;9.09;65.72
66176;BME280;52977;44.816;20.538;2023-04-27T07:12:09;100040.53;;;9.15;64.60
66176;BME280;52977;44.816;20.538;2023-04-27T07:14:35;100008.88;;;8.77;64.22
66176;BME280;52977;44.816;20.538;2023-04-27T07:17:01;100000.22;;;8.61;63.64
66176;BME280;52977;44.816;20.538;2023-04-27T07:19:27;100055.97;;;8.92;65.07
66176;BME280;52977;44.816;20.538;2023-04-27T07:21:53;100044.59;;;9.03;65.21
66176;BME280;52977;44.816;20.538;2023-04-27T07:24:19;100048.53;;;9.11;64.81
66176;BME280;52977;44.816;20.538;2023-04-27T07:26:46;100032.19;;;9.11;64.95
66176;BME280;52977;44.816;20.538;2023-04-27T07:29:12;100044.78;;;9.21;65.06
66176;BME280;52977;44.816;20.538;2023-04-27T07:31:41;100005.84;;;9.06;64.17
66176;BME280;52977;44.816;20.538;2023-04-27T07:34:07;100044.38;;;9.14;63.85
66176;BME280;52977;44.816;20.538;2023-04-27T07:36:33;100043.97;;;9.06;64.83
66176;BME280;52977;44.816;20.538;2023-04-27T07:38:59;99908.06;;;8.13;64.42
66176;BME280;52977;44.816;20.538;2023-04-27T07:41:26;100025.63;;;8.84;64.95
66176;BME280;52977;44.816;20.538;2023-04-27T07:43:52;100017.34;;;8.89;66.10
66176;BME280;52977;44.816;20.538;2023-04-27T07:46:17;100052.22;;;9.29;67.19
66176;BME280;52977;44.816;20.538;2023-04-27T07:48:43;100009.97;;;9.18;63.83
66176;BME280;52977;44.816;20.538;2023-04-27T07:51:09;100065.09;;;9.51;63.78
66176;BME280;52977;44.816;20.538;2023-04-27T07:53:36;100050.56;;;9.56;63.16
66176;BME280;52977;44.816;20.538;2023-04-27T07:56:04;100025.38;;;9.36;63.35
66176;BME280;52977;44.816;20.538;2023-04-27T07:58:30;100041.25;;;9.57;62.61
66176;BME280;52977;44.816;20.538;2023-04-27T08:00:56;100054.75;;;9.76;63.33
66176;BME280;52977;44.816;20.538;2023-04-27T08:03:23;100060.16;;;9.90;62.22
66176;BME280;52977;44.816;20.538;2023-04-27T08:05:49;100057.06;;;9.83;63.54
66176;BME280;52977;44.816;20.538;2023-04-27T08:08:15;100063.56;;;9.96;62.47
66176;BME280;52977;44.816;20.538;2023-04-27T08:10:41;100060.88;;;9.82;63.60
66176;BME280;52977;44.816;20.538;2023-04-27T08:13:07;100060.16;;;9.90;63.63
66176;BME280;52977;44.816;20.538;2023-04-27T08:15:35;99973.50;;;9.41;63.20
66176;BME280;52977;44.816;20.538;2023-04-27T08:18:02;100065.75;;;10.07;62.63
66176;BME280;52977;44.816;20.538;2023-04-27T08:20:28;99988.41;;;9.44;63.22
66176;BME280;52977;44.816;20.538;2023-04-27T08:22:54;100066.59;;;10.17;63.23
66176;BME280;52977;44.816;20.538;2023-04-27T08:25:20;100069.09;;;10.27;61.43
66176;BME280;52977;44.816;20.538;2023-04-27T08:27:46;100070.09;;;10.31;61.87
66176;BME280;52977;44.816;20.538;2023-04-27T08:30:12;100062.09;;;10.35;59.82
66176;BME280;52977;44.816;20.538;2023-04-27T08:32:38;100072.63;;;10.50;58.11
66176;BME280;52977;44.816;20.538;2023-04-27T08:35:05;100067.16;;;10.50;56.89
66176;BME280;52977;44.816;20.538;2023-04-27T08:37:31;100071.56;;;10.60;58.12
66176;BME280;52977;44.816;20.538;2023-04-27T08:39:58;99965.59;;;9.99;58.41
66176;BME280;52977;44.816;20.538;2023-04-27T08:42:24;100008.81;;;10.37;56.43
66176;BME280;52977;44.816;20.538;2023-04-27T08:44:51;100044.41;;;10.55;57.37
66176;BME280;52977;44.816;20.538;2023-04-27T08:47:17;100074.78;;;10.62;55.23
66176;BME280;52977;44.816;20.538;2023-04-27T08:49:43;100072.41;;;10.69;56.18
66176;BME280;52977;44.816;20.538;2023-04-27T08:52:11;100077.47;;;10.85;56.12
66176;BME280;52977;44.816;20.538;2023-04-27T08:54:38;100063.72;;;10.67;55.23
66176;BME280;52977;44.816;20.538;2023-04-27T08:57:11;100066.44;;;10.67;54.13
66176;BME280;52977;44.816;20.538;2023-04-27T08:59:39;100048.81;;;10.73;54.49
66176;BME280;52977;44.816;20.538;2023-04-27T09:02:05;99970.41;;;10.34;54.00
66176;BME280;52977;44.816;20.538;2023-04-27T09:04:36;100061.13;;;11.02;54.63
66176;BME280;52977;44.816;20.538;2023-04-27T09:07:13;99987.75;;;10.60;55.02
66176;BME280;52977;44.816;20.538;2023-04-27T09:09:41;100052.16;;;11.10;54.49
66176;BME280;52977;44.816;20.538;2023-04-27T09:12:18;100067.13;;;11.13;52.94
66176;BME280;52977;44.816;20.538;2023-04-27T09:15:05;100064.78;;;10.89;53.16
66176;BME280;52977;44.816;20.538;2023-04-27T09:17:33;100008.53;;;10.48;53.52
66176;BME280;52977;44.816;20.538;2023-04-27T09:20:06;100055.78;;;10.88;53.34
66176;BME280;52977;44.816;20.538;2023-04-27T09:22:51;100060.78;;;10.95;54.59
66176;BME280;52977;44.816;20.538;2023-04-27T09:27:49;100066.44;;;10.99;53.02
66176;BME280;52977;44.816;20.538;2023-04-27T09:30:15;100055.78;;;10.88;52.40
66176;BME280;52977;44.816;20.538;2023-04-27T09:32:53;100046.75;;;10.79;51.27
66176;BME280;52977;44.816;20.538;2023-04-27T09:35:27;100055.59;;;10.76;51.34
66176;BME280;52977;44.816;20.538;2023-04-27T09:37:55;100059.91;;;10.77;52.55
66176;BME280;52977;44.816;20.538;2023-04-27T09:40:28;100046.72;;;10.70;52.18
66176;BME280;52977;44.816;20.538;2023-04-27T09:42:59;100024.78;;;10.53;50.96
66176;BME280;52977;44.816;20.538;2023-04-27T09:45:29;100024.47;;;10.54;52.13
66176;BME280;52977;44.816;20.538;2023-04-27T09:47:55;100055.75;;;10.80;51.76
66176;BME280;52977;44.816;20.538;2023-04-27T09:50:22;100024.16;;;10.56;51.45
66176;BME280;52977;44.816;20.538;2023-04-27T09:52:49;100054.84;;;10.93;50.23
66176;BME280;52977;44.816;20.538;2023-04-27T09:55:19;100039.13;;;11.07;50.48
66176;BME280;52977;44.816;20.538;2023-04-27T10:08:55;100043.06;;;10.84;50.85
66176;BME280;52977;44.816;20.538;2023-04-27T10:11:34;100050.63;;;10.87;50.97
66176;BME280;52977;44.816;20.538;2023-04-27T10:14:08;100030.50;;;10.74;51.54
66176;BME280;52977;44.816;20.538;2023-04-27T10:16:43;100040.66;;;10.82;50.15
66176;BME280;52977;44.816;20.538;2023-04-27T10:19:11;100046.47;;;10.89;50.00
66176;BME280;52977;44.816;20.538;2023-04-27T10:21:52;100059.38;;;11.06;49.61
66176;BME280;52977;44.816;20.538;2023-04-27T10:24:30;99974.31;;;10.82;48.93
66176;BME280;52977;44.816;20.538;2023-04-27T10:27:01;100049.66;;;11.58;46.68
66176;BME280;52977;44.816;20.538;2023-04-27T10:29:40;100010.75;;;11.35;46.50
66176;BME280;52977;44.816;20.538;2023-04-27T10:32:08;100054.16;;;11.54;47.86
66176;BME280;52977;44.816;20.538;2023-04-27T10:34:35;100053.69;;;11.43;49.07
66176;BME280;52977;44.816;20.538;2023-04-27T10:37:10;100048.06;;;11.39;47.77
66176;BME280;52977;44.816;20.538;2023-04-27T10:39:38;100051.09;;;11.29;47.54
66176;BME280;52977;44.816;20.538;2023-04-27T10:42:05;100063.78;;;11.25;47.95
66176;BME280;52977;44.816;20.538;2023-04-27T10:44:33;99985.59;;;10.98;48.36
66176;BME280;52977;44.816;20.538;2023-04-27T10:47:14;100044.53;;;11.65;48.07
66176;BME280;52977;44.816;20.538;2023-04-27T10:49:41;99976.34;;;11.25;48.57
66176;BME280;52977;44.816;20.538;2023-04-27T10:52:07;99980.78;;;11.03;48.35
66176;BME280;52977;44.816;20.538;2023-04-27T10:54:34;100043.03;;;11.33;49.25
66176;BME280;52977;44.816;20.538;2023-04-27T10:57:05;100041.16;;;11.42;49.13
66176;BME280;52977;44.816;20.538;2023-04-27T10:59:33;100045.81;;;11.41;49.33
66176;BME280;52977;44.816;20.538;2023-04-27T11:02:00;100039.38;;;11.37;49.73
66176;BME280;52977;44.816;20.538;2023-04-27T11:04:37;99986.25;;;11.03;49.15
66176;BME280;52977;44.816;20.538;2023-04-27T11:07:06;100032.63;;;11.43;48.38
66176;BME280;52977;44.816;20.538;2023-04-27T11:09:34;100038.09;;;11.78;48.51
66176;BME280;52977;44.816;20.538;2023-04-27T11:12:05;100036.81;;;11.93;46.24
66176;BME280;52977;44.816;20.538;2023-04-27T11:14:33;100006.41;;;11.69;46.03
66176;BME280;52977;44.816;20.538;2023-04-27T11:17:00;100028.94;;;12.09;46.76
66176;BME280;52977;44.816;20.538;2023-04-27T11:19:26;100038.09;;;12.13;46.95
66176;BME280;52977;44.816;20.538;2023-04-27T11:22:01;99992.59;;;11.74;46.22
66176;BME280;52977;44.816;20.538;2023-04-27T11:24:28;100024.28;;;11.84;47.64
66176;BME280;52977;44.816;20.538;2023-04-27T11:26:54;100072.38;;;11.93;46.09
66176;BME280;52977;44.816;20.538;2023-04-27T11:29:20;99963.94;;;11.80;46.88
66176;BME280;52977;44.816;20.538;2023-04-27T11:31:48;100002.72;;;12.08;46.84
66176;BME280;52977;44.816;20.538;2023-04-27T11:34:19;100025.53;;;12.30;45.54
66176;BME280;52977;44.816;20.538;2023-04-27T11:37:02;100023.91;;;12.38;45.90
66176;BME280;52977;44.816;20.538;2023-04-27T11:39:34;100020.50;;;12.32;45.24
66176;BME280;52977;44.816;20.538;2023-04-27T11:42:19;100015.75;;;12.11;45.34
66176;BME280;52977;44.816;20.538;2023-04-27T11:47:23;100032.47;;;12.01;46.51
66176;BME280;52977;44.816;20.538;2023-04-27T11:49:51;100025.41;;;11.83;46.57
66176;BME280;52977;44.816;20.538;2023-04-27T11:52:17;100037.97;;;11.84;47.26
66176;BME280;52977;44.816;20.538;2023-04-27T11:54:52;100038.28;;;11.91;47.80
66176;BME280;52977;44.816;20.538;2023-04-27T11:57:25;99971.84;;;11.64;47.22
66176;BME280;52977;44.816;20.538;2023-04-27T11:59:52;100037.81;;;12.06;46.74
66176;BME280;52977;44.816;20.538;2023-04-27T12:02:19;99965.25;;;11.56;45.52
66176;BME280;52977;44.816;20.538;2023-04-27T12:04:47;99998.22;;;12.04;45.26
66176;BME280;52977;44.816;20.538;2023-04-27T12:07:13;100036.56;;;12.51;44.58
66176;BME280;52977;44.816;20.538;2023-04-27T12:09:40;100034.97;;;12.50;44.09
66176;BME280;52977;44.816;20.538;2023-04-27T12:12:07;100027.31;;;12.73;44.17
66176;BME280;52977;44.816;20.538;2023-04-27T12:14:33;100000.38;;;12.75;44.03
66176;BME280;52977;44.816;20.538;2023-04-27T12:16:59;100028.28;;;13.07;43.46
66176;BME280;52977;44.816;20.538;2023-04-27T12:19:25;100041.19;;;13.07;43.85
66176;BME280;52977;44.816;20.538;2023-04-27T12:21:52;100047.06;;;12.88;45.03
66176;BME280;52977;44.816;20.538;2023-04-27T12:24:19;99946.59;;;12.32;45.35
66176;BME280;52977;44.816;20.538;2023-04-27T12:26:45;100013.56;;;12.52;44.32
66176;BME280;52977;44.816;20.538;2023-04-27T12:29:11;100032.34;;;12.62;44.26
66176;BME280;52977;44.816;20.538;2023-04-27T12:31:37;99998.81;;;12.27;43.34
66176;BME280;52977;44.816;20.538;2023-04-27T12:34:03;100035.50;;;12.82;42.74
66176;BME280;52977;44.816;20.538;2023-04-27T12:36:28;100034.31;;;13.01;42.52
66176;BME280;52977;44.816;20.538;2023-04-27T12:38:59;100023.00;;;13.02;43.29
66176;BME280;52977;44.816;20.538;2023-04-27T12:41:36;100028.38;;;12.90;42.55
66176;BME280;52977;44.816;20.538;2023-04-27T12:44:01;100010.78;;;12.61;44.00
66176;BME280;52977;44.816;20.538;2023-04-27T12:46:27;99951.19;;;12.10;45.02
66176;BME280;52977;44.816;20.538;2023-04-27T12:48:52;100015.59;;;12.64;44.38
66176;BME280;52977;44.816;20.538;2023-04-27T12:51:21;99977.16;;;12.52;43.03
66176;BME280;52977;44.816;20.538;2023-04-27T12:53:47;99997.78;;;12.49;42.68
66176;BME280;52977;44.816;20.538;2023-04-27T12:56:13;100027.06;;;12.57;42.51
66176;BME280;52977;44.816;20.538;2023-04-27T12:58:39;100035.75;;;12.59;42.33
66176;BME280;52977;44.816;20.538;2023-04-27T13:01:06;100016.81;;;12.75;42.52
66176;BME280;52977;44.816;20.538;2023-04-27T13:03:46;100035.66;;;12.86;42.69
66176;BME280;52977;44.816;20.538;2023-04-27T13:06:12;100024.19;;;12.83;43.07
66176;BME280;52977;44.816;20.538;2023-04-27T13:08:38;99995.53;;;12.42;43.54
66176;BME280;52977;44.816;20.538;2023-04-27T13:11:05;100018.47;;;12.68;43.47